Mankota, Canada
Current Conditions -  °F | °C
As of 4:00 AM on Saturday 25 Oct 2014 (Local Time) from CYYN Reporting Station
Overcast Overcast  
Wind Chill: 26°   Ceiling: 17000
Heat Index: 34°   Visibility: 9mi
Dew Point: 28°   Wind: 10mph
Humidity: 81%   Direction: 220°SW
Pressure: 30.05"   Gusts: NA
Location:  49.42°N, 107.07°W
Report Text: CYYN 251000Z AUTO 22009KT 9SM OVC170 01/M02 A3005 RMK SLP194
Loading
Personal Weather Stations






























Interactive Weather Map
Tropical Storm Tracking
New forecast layout! Learn more

10-Day Weather Forecast

Advertisements
Track Severe Weather on mobile